world map with RJTI marked

RJTI - Heliport

This information may not be accurate or current and is not valid for navigation or flight planning. No warranty of fitness for any purpose is made or implied.

flag of Tokyoflag of Japan

Donate via PayPal

Additional information is available on the NEW Great Circle Mapper

Location
City:  Tokyo, Tokyo, Japan
Name:Heliport
ICAO:RJTI

Details
Type:Heliport
Use:Private
Latitude:35°38'10"N (35.636111)
Longitude:139°50'22"E (139.839444)
Elevation:16 ft (5 m)
Helipads:1
Largest:295 × 98 ft (90 × 30 m)

Time
Timezone:UTC+9 (DST+11)
Local Time:

Weather
METAR:RJTI  040700Z 35006KT 300V060 9999 FEW030 17/M04 Q1009
TAF:RJTI  (expired)

Related Locations
Nearby:
Farthest:SUEX: 12282 mi / 19766 km
Montevideo East [Montevideo East UIR], UY

Find:

   beyond  
but within

Other Information
Maps:
Sources:

  


 


Great Circle Mapper   Great Circle Mapper
Great Circle Mapper FAQ   Great Circle Mapper FAQ
  Karl's Home Page
KLSē   KLSē Home
   GC on Facebook
Airlines of the World   Airlines of the World
Donate via PayPal


Copyright © 2004-2019, Karl L. Swartz. All rights reserved.
All trademarks mentioned herein belong to their respective owners.

Please see credits for attribution and copyright information.

Karl Swartz <karl@kls2.com>
  Powered by FreeBSD
Valid HTML 4.01!
Labeled with ICRA
hCard Microformat
Geo Microformat